Time;durP1;ratioP1;P1;durP2;ratioP2;P2;SDS_P1;SDS_P2;PMS_P1;PMS_P2;Temp;Humidity;BMP_temperature;BMP_pressure;BME280_temperature;BME280_humidity;BME280_pressure;Samples;Min_cycle;Max_cycle;Signal;HPM_P1;HPM_P2
2023/06/23 00:01:39;;;;;;;3.92;1.60;;;;;;;22.32;65.36;96686.22;4981929;28;20041;-83
2023/06/23 00:04:08;;;;;;;3.42;1.48;;;;;;;22.30;64.43;96677.69;4981960;28;20027;-85
2023/06/23 00:06:37;;;;;;;5.57;1.40;;;;;;;22.30;64.70;96680.34;4981676;28;20035;-83
2023/06/23 00:09:13;;;;;;;3.53;1.38;;;;;;;22.31;64.99;96684.63;4981868;28;20035;-82
2023/06/23 00:11:47;;;;;;;4.07;1.52;;;;;;;22.30;66.58;96678.50;4981602;28;20032;-83
2023/06/23 00:14:21;;;;;;;2.70;1.33;;;;;;;22.32;65.76;96683.56;4981692;28;20132;-84
2023/06/23 00:16:51;;;;;;;3.60;1.85;;;;;;;22.31;63.20;96681.97;4981584;28;20039;-82
2023/06/23 00:19:22;;;;;;;2.55;1.48;;;;;;;22.27;62.67;96694.94;4981849;28;20053;-83
2023/06/23 00:21:52;;;;;;;1.40;1.23;;;;;;;22.26;64.42;96698.69;4981679;28;20039;-83
2023/06/23 00:24:23;;;;;;;1.20;1.05;;;;;;;22.30;64.78;96706.91;4981632;28;20055;-82
2023/06/23 00:26:55;;;;;;;2.45;1.60;;;;;;;22.30;63.97;96705.09;4981480;28;20067;-83
2023/06/23 00:29:25;;;;;;;2.65;1.50;;;;;;;22.28;62.52;96699.22;4981626;28;20039;-82
2023/06/23 00:31:53;;;;;;;2.47;1.45;;;;;;;22.26;65.79;96698.69;4981590;28;20042;-83
2023/06/23 00:34:21;;;;;;;2.05;1.33;;;;;;;22.29;66.19;96702.69;4981479;28;20046;-84
2023/06/23 00:36:57;;;;;;;1.27;1.13;;;;;;;22.32;65.80;96700.28;4980966;28;20055;-83
2023/06/23 00:39:31;;;;;;;1.02;0.82;;;;;;;22.33;65.81;96699.25;4981445;28;20054;-84
2023/06/23 00:42:03;;;;;;;1.88;1.20;;;;;;;22.31;62.46;96717.31;4981353;28;20039;-82
2023/06/23 00:44:34;;;;;;;1.52;0.93;;;;;;;22.30;65.78;96715.72;4981460;28;20042;-84
2023/06/23 00:47:03;;;;;;;2.70;0.98;;;;;;;22.30;65.32;96723.69;4980978;28;20035;-82
2023/06/23 00:49:34;;;;;;;2.75;1.13;;;;;;;22.31;66.25;96724.47;4981223;28;20059;-83
2023/06/23 00:52:07;;;;;;;2.22;1.30;;;;;;;22.30;64.55;96726.34;4981188;28;20039;-83
2023/06/23 00:54:37;;;;;;;2.55;1.08;;;;;;;22.30;64.37;96714.88;4980904;28;20039;-82
2023/06/23 00:57:06;;;;;;;1.63;1.13;;;;;;;22.32;65.73;96718.09;4980825;28;20039;-82
2023/06/23 00:59:37;;;;;;;1.70;1.45;;;;;;;22.35;67.34;96704.31;4981035;28;20039;-82
2023/06/23 01:02:08;;;;;;;1.38;1.27;;;;;;;22.34;64.93;96705.34;4980752;28;20059;-83
2023/06/23 01:04:36;;;;;;;1.38;1.10;;;;;;;22.30;64.97;96706.91;4980909;28;20047;-82
2023/06/23 01:07:15;;;;;;;1.52;1.00;;;;;;;22.29;66.58;96702.69;4980716;28;20039;-82
2023/06/23 01:09:58;;;;;;;1.00;0.90;;;;;;;22.32;66.62;96704.81;4980899;28;20079;-84
2023/06/23 01:12:34;;;;;;;4.97;1.02;;;;;;;22.34;65.87;96708.03;4980893;28;20043;-83
2023/06/23 01:15:15;;;;;;;2.72;1.30;;;;;;;22.34;64.11;96713.34;4980540;28;20103;-85
2023/06/23 01:17:50;;;;;;;2.20;1.45;;;;;;;22.35;66.75;96706.97;4980617;28;20057;-84
2023/06/23 01:20:27;;;;;;;0.70;0.70;;;;;;;22.33;66.22;96704.56;4980805;28;20099;-83
2023/06/23 01:23:10;;;;;;;1.67;1.00;;;;;;;22.33;63.57;96711.75;4979944;28;20069;-82
2023/06/23 01:25:53;;;;;;;1.10;1.00;;;;;;;22.27;64.15;96712.75;4980434;28;20035;-83
2023/06/23 01:28:47;;;;;;;1.00;0.95;;;;;;;22.27;64.60;96710.09;4980676;28;20091;-83
2023/06/23 01:31:21;;;;;;;1.10;0.90;;;;;;;22.25;64.43;96715.66;4980494;28;20035;-82
2023/06/23 01:33:56;;;;;;;0.88;0.82;;;;;;;22.25;65.59;96709.53;4980401;28;20065;-82
2023/06/23 01:36:29;;;;;;;0.82;0.80;;;;;;;22.19;65.42;96721.94;4979933;28;20051;-83
2023/06/23 01:39:04;;;;;;;1.13;0.95;;;;;;;22.20;66.97;96719.03;4980293;28;20027;-83
2023/06/23 01:41:39;;;;;;;0.95;0.85;;;;;;;22.20;67.27;96716.38;4980194;28;20055;-81
2023/06/23 01:44:14;;;;;;;1.75;0.90;;;;;;;22.19;66.06;96714.78;4980240;28;20049;-82
2023/06/23 01:46:47;;;;;;;1.25;0.95;;;;;;;22.19;67.20;96713.97;4980076;28;20031;-83
2023/06/23 01:49:22;;;;;;;1.05;1.05;;;;;;;22.19;68.21;96706.81;4980525;28;20055;-82
2023/06/23 01:51:52;;;;;;;1.60;1.15;;;;;;;22.15;66.27;96713.69;4980201;28;20037;-83
2023/06/23 01:54:23;;;;;;;1.92;1.33;;;;;;;22.05;65.64;96710.94;4980051;28;20039;-82
2023/06/23 01:56:52;;;;;;;1.60;1.10;;;;;;;21.98;66.23;96718.31;4979892;28;20058;-82
2023/06/23 01:59:24;;;;;;;2.13;1.27;;;;;;;21.88;65.90;96716.34;4980051;28;20035;-82
2023/06/23 02:01:53;;;;;;;2.38;1.20;;;;;;;21.83;65.86;96715.53;4980292;28;20035;-83
2023/06/23 02:04:23;;;;;;;1.42;1.10;;;;;;;21.81;68.69;96724.53;4980325;28;20031;-82
2023/06/23 02:06:54;;;;;;;1.98;0.90;;;;;;;21.78;67.37;96721.59;4980418;28;20027;-82
2023/06/23 02:09:26;;;;;;;1.23;0.95;;;;;;;21.72;67.54;96714.63;4980357;28;20046;-82
2023/06/23 02:11:57;;;;;;;1.33;1.23;;;;;;;21.69;65.83;96709.78;4980637;28;20041;-82
2023/06/23 02:14:43;;;;;;;1.75;1.20;;;;;;;21.66;68.47;96708.44;4980500;28;20115;-81
2023/06/23 02:17:16;;;;;;;1.90;1.15;;;;;;;21.69;68.64;96707.13;4980273;28;20054;-81
2023/06/23 02:19:48;;;;;;;1.10;1.00;;;;;;;21.68;68.57;96711.66;4980496;28;20051;-82
2023/06/23 02:22:19;;;;;;;1.60;1.10;;;;;;;21.65;67.50;96708.72;4980522;28;20035;-82
2023/06/23 02:24:51;;;;;;;1.42;1.17;;;;;;;21.63;69.03;96724.09;4980355;28;20054;-83
2023/06/23 02:27:22;;;;;;;1.20;1.10;;;;;;;21.60;68.74;96718.22;4980418;28;20046;-82
2023/06/23 02:29:54;;;;;;;1.67;1.55;;;;;;;21.60;68.76;96717.41;4980778;28;20037;-83
2023/06/23 02:32:25;;;;;;;1.17;1.08;;;;;;;21.60;69.39;96720.06;4980576;28;20095;-83
2023/06/23 02:34:53;;;;;;;1.10;1.10;;;;;;;21.55;69.48;96720.00;4979570;28;20035;-82
2023/06/23 02:37:24;;;;;;;1.10;1.10;;;;;;;21.48;69.76;96735.31;4980422;28;20094;-83
2023/06/23 02:40:20;;;;;;;2.92;1.25;;;;;;;21.39;70.87;96722.44;4980647;28;20047;-82
2023/06/23 05:02:45;;;;;;;8.95;7.50;;;;;;;19.32;72.61;96922.28;5205139;23;20538;-75
2023/06/23 05:05:15;;;;;;;10.43;8.45;;;;;;;19.33;72.25;96929.19;4946938;29;20048;-75
2023/06/23 05:07:44;;;;;;;7.40;6.55;;;;;;;19.42;74.76;96931.50;4944155;29;20047;-74
2023/06/23 05:10:12;;;;;;;9.35;8.15;;;;;;;19.48;73.97;96936.69;4945202;29;20485;-74
2023/06/23 05:12:41;;;;;;;7.63;6.88;;;;;;;19.47;72.35;96936.91;4944276;29;20530;-73
2023/06/23 05:15:11;;;;;;;9.55;7.63;;;;;;;19.51;75.09;96938.06;4947145;29;20099;-75
2023/06/23 05:17:40;;;;;;;8.18;7.35;;;;;;;19.52;72.69;96937.00;4951270;29;20055;-75
2023/06/23 05:20:11;;;;;;;8.93;7.13;;;;;;;19.52;73.58;96934.34;4953778;29;20423;-74
2023/06/23 05:22:40;;;;;;;8.93;8.03;;;;;;;19.54;73.78;96934.94;4954912;29;20043;-75
2023/06/23 05:25:09;;;;;;;9.50;8.43;;;;;;;19.54;74.39;96940.22;4942765;29;20701;-75
2023/06/23 05:27:44;;;;;;;11.00;9.90;;;;;;;19.52;72.61;96937.00;4954927;29;20130;-75
2023/06/23 05:30:16;;;;;;;14.70;9.57;;;;;;;19.42;71.26;96944.72;4940965;29;20055;-75
2023/06/23 05:32:45;;;;;;;13.00;9.60;;;;;;;19.35;71.81;96947.47;4955484;29;20102;-75
2023/06/23 05:35:16;;;;;;;12.30;10.48;;;;;;;19.32;72.04;96948.72;4954836;29;20053;-74
2023/06/23 05:37:45;;;;;;;10.80;9.70;;;;;;;19.31;73.14;96955.06;4950816;29;20055;-75
2023/06/23 05:40:15;;;;;;;13.82;9.88;;;;;;;19.33;72.50;96957.50;4950904;29;20051;-75
2023/06/23 05:42:43;;;;;;;11.38;9.57;;;;;;;19.33;73.27;96952.19;4937728;29;20134;-76
2023/06/23 05:45:12;;;;;;;9.75;8.80;;;;;;;19.37;74.69;96949.88;4937054;29;20491;-74
2023/06/23 05:47:43;;;;;;;10.55;9.52;;;;;;;19.37;73.76;96960.47;4948921;29;20424;-74
2023/06/23 05:50:19;;;;;;;11.50;10.10;;;;;;;19.42;75.40;96969.34;4937359;29;20051;-75
2023/06/23 05:52:57;;;;;;;11.93;10.73;;;;;;;19.41;72.10;96956.31;4944693;29;20438;-76
2023/06/23 05:55:28;;;;;;;10.88;9.43;;;;;;;19.35;72.53;96964.16;4955013;29;20118;-75
2023/06/23 05:58:01;;;;;;;14.68;10.63;;;;;;;19.31;74.23;96962.19;4950748;29;20627;-76
2023/06/23 06:00:33;;;;;;;11.05;9.95;;;;;;;19.29;75.14;96964.25;4947638;29;20119;-75
2023/06/23 06:03:06;;;;;;;13.18;11.20;;;;;;;19.23;72.11;96973.91;4949658;29;20051;-75
2023/06/23 06:05:37;;;;;;;12.82;11.15;;;;;;;19.16;73.71;96981.13;4948912;29;20055;-75
2023/06/23 06:08:06;;;;;;;11.93;10.68;;;;;;;19.19;73.70;96979.88;4950985;29;20048;-75
2023/06/23 06:10:35;;;;;;;13.38;11.65;;;;;;;19.14;72.12;96983.19;4946207;29;20086;-75
2023/06/23 06:13:05;;;;;;;13.60;12.10;;;;;;;19.01;71.83;96983.41;4940058;29;20048;-75
2023/06/23 06:15:34;;;;;;;13.25;11.30;;;;;;;18.97;72.47;96992.81;4938339;29;20126;-75
2023/06/23 06:18:05;;;;;;;12.43;11.02;;;;;;;18.90;72.06;96995.56;4949601;29;20047;-76
2023/06/23 06:20:36;;;;;;;20.77;16.17;;;;;;;18.89;72.54;97001.84;4965825;29;20113;-75
2023/06/23 06:23:06;;;;;;;39.38;27.25;;;;;;;18.88;73.03;96995.75;4949192;29;20047;-75
2023/06/23 06:25:54;;;;;;;16.05;13.82;;;;;;;18.96;73.34;96996.47;4943196;29;20055;-75
2023/06/23 06:28:24;;;;;;;15.60;12.80;;;;;;;19.02;74.53;97001.69;4942904;29;20071;-75
2023/06/23 06:30:54;;;;;;;33.22;26.73;;;;;;;19.07;72.67;97008.94;4941869;29;20512;-75
2023/06/23 06:33:23;;;;;;;22.60;17.02;;;;;;;19.08;74.35;97011.34;4938686;29;20056;-75
2023/06/23 06:35:55;;;;;;;16.45;13.63;;;;;;;19.10;72.19;97016.41;4942926;29;20043;-75
2023/06/23 06:38:24;;;;;;;15.88;12.85;;;;;;;19.18;74.18;97024.03;4944409;29;20094;-75
2023/06/23 06:40:54;;;;;;;15.35;13.75;;;;;;;19.19;71.15;97033.56;4950613;29;20114;-75
2023/06/23 06:43:22;;;;;;;17.50;15.68;;;;;;;19.14;70.52;97036.09;4956324;29;20443;-76
2023/06/23 06:45:51;;;;;;;19.17;14.93;;;;;;;19.08;70.91;97034.34;4952572;29;20047;-75
2023/06/23 06:48:20;;;;;;;16.58;14.77;;;;;;;19.00;71.32;97043.41;4951829;29;20448;-75
2023/06/23 06:50:48;;;;;;;17.35;14.93;;;;;;;18.95;71.18;97043.25;4944985;29;20052;-75
2023/06/23 06:53:19;;;;;;;18.48;15.73;;;;;;;18.94;71.62;97047.75;4941090;29;20056;-75
2023/06/23 06:55:47;;;;;;;18.80;15.57;;;;;;;18.94;72.47;97046.94;4937111;29;20514;-75
2023/06/23 06:58:15;;;;;;;18.65;15.65;;;;;;;19.00;71.46;97055.78;4937140;29;20056;-75
2023/06/23 07:00:43;;;;;;;16.48;14.65;;;;;;;19.01;72.30;97062.72;4941210;29;20043;-74
2023/06/23 07:03:12;;;;;;;19.00;16.13;;;;;;;19.03;71.33;97068.59;4949513;29;20078;-74
2023/06/23 07:05:40;;;;;;;18.30;16.08;;;;;;;19.08;73.30;97060.78;4936780;29;20086;-75
2023/06/23 07:08:07;;;;;;;19.17;16.08;;;;;;;19.14;71.85;97073.09;4936344;29;20059;-75
2023/06/23 07:10:38;;;;;;;19.08;16.92;;;;;;;19.13;70.83;97072.31;4949141;29;20059;-75
2023/06/23 07:13:05;;;;;;;21.90;18.50;;;;;;;19.12;70.29;97070.69;4942851;29;20063;-75
2023/06/23 07:15:33;;;;;;;18.27;16.00;;;;;;;19.13;70.02;97076.78;4941856;29;20047;-75
2023/06/23 07:18:00;;;;;;;19.67;16.50;;;;;;;19.13;71.42;97077.59;4955721;29;20077;-74
2023/06/23 07:20:28;;;;;;;20.17;18.10;;;;;;;19.12;70.47;97083.91;4955287;28;20478;-74
2023/06/23 07:22:56;;;;;;;21.80;17.33;;;;;;;19.06;70.21;97086.63;4940981;29;20075;-75
2023/06/23 07:25:24;;;;;;;24.48;18.20;;;;;;;19.01;69.83;97094.44;4939412;29;20575;-74
2023/06/23 07:27:53;;;;;;;19.38;16.75;;;;;;;19.01;70.62;97097.88;4941428;29;20056;-74
2023/06/23 07:30:20;;;;;;;22.25;18.60;;;;;;;19.00;70.05;97098.94;4957693;29;20164;-75
2023/06/23 07:32:49;;;;;;;18.48;16.50;;;;;;;19.03;71.06;97097.66;4941369;29;20595;-74
2023/06/23 07:35:17;;;;;;;22.70;18.25;;;;;;;19.05;70.28;97111.47;4940366;29;20405;-74
2023/06/23 07:37:44;;;;;;;22.05;18.38;;;;;;;19.05;69.63;97116.75;4953209;29;20526;-75
2023/06/23 07:40:12;;;;;;;19.55;16.50;;;;;;;19.10;70.20;97111.59;4956367;29;20558;-74
2023/06/23 07:42:40;;;;;;;21.00;16.23;;;;;;;19.19;71.48;97114.75;4948773;29;20106;-75
2023/06/23 07:45:10;;;;;;;20.08;17.05;;;;;;;19.27;71.33;97122.38;4959128;29;20118;-74
2023/06/23 07:47:38;;;;;;;18.55;16.33;;;;;;;19.34;71.39;97118.59;4947646;29;20051;-75
2023/06/23 07:50:07;;;;;;;23.40;17.92;;;;;;;19.35;70.27;97122.88;4944421;29;20058;-75
2023/06/23 07:52:35;;;;;;;22.13;18.35;;;;;;;19.38;69.59;97131.38;4949942;29;20482;-75
2023/06/23 07:55:03;;;;;;;19.02;15.70;;;;;;;19.42;69.64;97132.56;4957374;29;20075;-76
2023/06/23 07:57:30;;;;;;;20.30;16.73;;;;;;;19.42;68.83;97133.34;4948168;29;20059;-75
2023/06/23 07:59:58;;;;;;;18.65;16.50;;;;;;;19.44;68.90;97130.47;4957013;29;20047;-75
2023/06/23 08:02:27;;;;;;;18.48;16.55;;;;;;;19.46;69.73;97139.81;4952011;29;20047;-75
2023/06/23 08:04:54;;;;;;;19.08;16.85;;;;;;;19.45;68.32;97140.84;4957151;29;20238;-75
2023/06/23 08:07:22;;;;;;;19.63;17.52;;;;;;;19.46;68.00;97133.69;4947902;29;20044;-75
2023/06/23 08:09:50;;;;;;;18.70;15.57;;;;;;;19.51;68.87;97152.38;4946115;29;20075;-75
2023/06/23 08:12:18;;;;;;;20.40;16.42;;;;;;;19.55;66.99;97154.34;4939127;29;20500;-75
2023/06/23 08:14:45;;;;;;;18.05;15.93;;;;;;;19.59;68.64;97156.53;4939079;29;20560;-74
2023/06/23 08:17:13;;;;;;;20.15;16.33;;;;;;;19.59;67.28;97157.34;4945934;29;20578;-75
2023/06/23 08:19:43;;;;;;;19.90;16.73;;;;;;;19.56;66.52;97155.94;4958231;29;20097;-75
2023/06/23 08:22:11;;;;;;;17.20;15.40;;;;;;;19.60;67.25;97148.38;4950253;29;20162;-75
2023/06/23 08:24:38;;;;;;;18.00;14.98;;;;;;;19.66;66.92;97162.53;4957708;29;20047;-75
2023/06/23 08:27:07;;;;;;;21.75;16.02;;;;;;;19.79;66.38;97165.03;4954377;29;20423;-75
2023/06/23 08:29:37;;;;;;;16.50;13.93;;;;;;;19.90;66.84;97161.59;4938591;29;20051;-75
2023/06/23 08:32:05;;;;;;;19.77;13.68;;;;;;;20.03;64.66;97165.06;4937274;29;20511;-75
2023/06/23 08:34:33;;;;;;;14.90;13.00;;;;;;;20.15;64.69;97157.94;4945594;29;20047;-75
2023/06/23 08:37:02;;;;;;;16.40;13.75;;;;;;;20.22;64.07;97163.13;4950629;29;20078;-75
2023/06/23 08:39:30;;;;;;;15.95;13.73;;;;;;;20.19;64.05;97168.91;4944318;29;20055;-75
2023/06/23 08:41:59;;;;;;;17.75;14.02;;;;;;;20.12;62.63;97171.66;4950257;29;20055;-75
2023/06/23 08:44:30;;;;;;;16.23;12.75;;;;;;;20.13;65.35;97176.69;4952582;29;20503;-75
2023/06/23 08:47:02;;;;;;;17.88;15.15;;;;;;;20.19;62.96;97174.19;4944454;29;20051;-78
2023/06/23 08:49:38;;;;;;;20.05;13.45;;;;;;;20.22;64.04;97168.41;4954722;29;20087;-75
2023/06/23 08:52:08;;;;;;;;;;;;;;;20.32;62.60;97171.31;4956880;29;20093;-75
2023/06/23 08:54:36;;;;;;;16.77;12.80;;;;;;;20.37;64.41;97179.38;4939159;29;19953;-75
2023/06/23 08:57:06;;;;;;;15.70;13.05;;;;;;;20.39;64.77;97169.34;4950937;29;20047;-76
2023/06/23 08:59:33;;;;;;;16.17;13.90;;;;;;;20.33;62.89;97179.03;4955410;29;20117;-75
2023/06/23 09:02:01;;;;;;;14.88;13.25;;;;;;;20.25;63.38;97173.28;4946621;29;20056;-75
2023/06/23 09:04:29;;;;;;;17.75;13.57;;;;;;;20.21;64.37;97182.72;4949067;29;20055;-75
2023/06/23 09:06:56;;;;;;;14.90;12.63;;;;;;;20.24;63.80;97176.94;4943215;29;20079;-75
2023/06/23 09:09:25;;;;;;;13.48;11.30;;;;;;;20.35;64.88;97179.59;4937589;29;20054;-75
2023/06/23 09:11:53;;;;;;;14.55;12.57;;;;;;;20.54;62.57;97176.84;4947145;29;20110;-75
2023/06/23 09:14:23;;;;;;;16.05;12.70;;;;;;;20.74;64.16;97169.34;4944434;29;20051;-75
2023/06/23 09:16:54;;;;;;;15.02;12.85;;;;;;;20.97;63.12;97176.47;4943635;29;20486;-75
2023/06/23 09:19:22;;;;;;;14.50;12.80;;;;;;;21.12;60.91;97169.84;4942087;29;20055;-76
2023/06/23 09:21:50;;;;;;;13.25;11.38;;;;;;;21.23;60.54;97165.56;4948402;29;20130;-76
2023/06/23 09:24:18;;;;;;;15.85;12.50;;;;;;;21.32;59.15;97149.03;4944741;29;20048;-75
2023/06/23 09:26:49;;;;;;;13.15;11.77;;;;;;;21.40;57.98;97155.81;4946095;29;20111;-76
2023/06/23 09:29:18;;;;;;;11.93;10.63;;;;;;;21.43;57.62;97168.66;4941568;29;20052;-75
2023/06/23 09:31:47;;;;;;;13.65;11.57;;;;;;;21.38;58.02;97187.91;4945880;29;20051;-77
2023/06/23 09:34:23;;;;;;;14.23;11.55;;;;;;;21.34;57.87;97180.63;4956028;29;20043;-76
2023/06/23 09:36:52;;;;;;;11.23;9.85;;;;;;;21.35;57.73;97172.44;4936471;29;20048;-76
2023/06/23 09:39:20;;;;;;;10.32;9.25;;;;;;;21.34;57.36;97168.19;4940747;29;20576;-76
2023/06/23 09:41:55;;;;;;;9.52;8.55;;;;;;;21.32;58.48;97174.78;4950237;29;20547;-76
2023/06/23 09:44:33;;;;;;;11.20;9.90;;;;;;;21.16;56.48;97178.97;4954276;28;20055;-75
2023/06/23 09:47:01;;;;;;;12.07;9.68;;;;;;;21.02;58.12;97182.94;4937394;29;20044;-76
2023/06/23 09:49:29;;;;;;;10.35;9.35;;;;;;;20.94;58.57;97198.16;4935782;29;20508;-76
2023/06/23 09:51:57;;;;;;;9.98;8.90;;;;;;;20.89;59.21;97200.69;4942069;29;20075;-76
2023/06/23 09:54:33;;;;;;;11.50;9.32;;;;;;;20.93;58.91;97206.34;4947939;29;20519;-77
2023/06/23 09:57:12;;;;;;;12.20;10.38;;;;;;;20.91;57.25;97200.47;4950695;29;20459;-75
2023/06/23 09:59:41;;;;;;;10.88;8.75;;;;;;;20.99;57.80;97194.81;4952251;29;20102;-76
2023/06/23 10:02:10;;;;;;;9.88;8.95;;;;;;;21.09;58.68;97204.81;4952426;29;20098;-75
2023/06/23 10:04:38;;;;;;;15.38;10.32;;;;;;;21.10;58.49;97195.81;4937462;29;20144;-75
2023/06/23 10:07:19;;;;;;;10.45;9.38;;;;;;;21.19;57.15;97194.44;4936094;29;20047;-75
2023/06/23 10:09:51;;;;;;;10.80;9.65;;;;;;;21.35;57.07;97212.25;4939611;29;20051;-75
2023/06/23 10:12:29;;;;;;;12.98;10.13;;;;;;;21.45;56.69;97202.91;4935432;29;20060;-75
2023/06/23 10:14:58;;;;;;;15.05;9.57;;;;;;;21.52;56.73;97191.09;4935486;29;20066;-75
2023/06/23 10:17:25;;;;;;;10.48;8.85;;;;;;;21.65;56.18;97187.38;4974595;29;20055;-76
2023/06/23 10:19:55;;;;;;;8.60;7.63;;;;;;;21.78;54.98;97196.88;4972292;29;20077;-76
2023/06/23 10:22:23;;;;;;;8.65;6.97;;;;;;;21.89;53.74;97206.66;4977403;29;20047;-77
2023/06/23 10:24:53;;;;;;;7.82;6.28;;;;;;;21.93;53.17;97204.28;4976198;29;20035;-75
2023/06/23 10:27:23;;;;;;;6.55;5.13;;;;;;;21.89;52.14;97211.16;4972357;29;20083;-76
2023/06/23 10:29:54;;;;;;;6.05;5.38;;;;;;;21.92;51.42;97202.69;4954044;29;20078;-74
2023/06/23 10:32:24;;;;;;;13.85;7.15;;;;;;;21.97;50.97;97205.44;4936167;29;20075;-76
2023/06/23 10:34:53;;;;;;;9.80;5.65;;;;;;;22.02;50.32;97200.22;4934620;29;20142;-76
2023/06/23 10:37:22;;;;;;;10.20;6.10;;;;;;;22.11;50.84;97195.31;4935033;29;20134;-75
2023/06/23 10:40:13;;;;;;;7.95;4.45;;;;;;;22.18;51.46;97202.06;4944901;29;20051;-75
2023/06/23 10:42:44;;;;;;;9.20;5.93;;;;;;;22.25;51.00;97190.50;4935475;29;20075;-75
2023/06/23 10:45:13;;;;;;;8.15;6.82;;;;;;;22.32;51.41;97185.84;4937080;29;20114;-76
2023/06/23 10:47:41;;;;;;;8.93;6.40;;;;;;;22.42;51.62;97196.63;4953314;29;20467;-74
2023/06/23 10:50:10;;;;;;;6.95;5.82;;;;;;;22.52;50.75;97185.31;4946081;29;20047;-76
2023/06/23 10:52:38;;;;;;;6.35;5.75;;;;;;;22.59;49.86;97186.78;4945144;29;20067;-76
2023/06/23 10:55:35;;;;;;;8.20;4.93;;;;;;;22.66;48.50;97196.44;4945564;28;20495;-76
2023/06/23 10:58:13;;;;;;;5.30;4.07;;;;;;;22.76;47.52;97189.41;4953454;29;20047;-77
2023/06/23 11:00:46;;;;;;;4.95;4.20;;;;;;;22.80;47.51;97179.88;4948888;29;20142;-77
2023/06/23 11:03:28;;;;;;;5.18;4.57;;;;;;;22.86;47.90;97195.91;4953935;29;20588;-77
2023/06/23 11:05:57;;;;;;;8.25;4.85;;;;;;;22.83;47.67;97198.00;4953771;29;20052;-76
2023/06/23 11:08:31;;;;;;;9.00;5.63;;;;;;;22.83;49.88;97207.84;4951952;29;20127;-77
2023/06/23 11:11:01;;;;;;;11.20;6.78;;;;;;;22.79;47.83;97212.06;4945914;29;20047;-77
2023/06/23 11:13:42;;;;;;;8.35;6.75;;;;;;;22.67;46.59;97219.31;4954506;29;20102;-77
2023/06/23 11:16:17;;;;;;;8.18;4.72;;;;;;;22.57;45.65;97215.47;4953192;29;20110;-77
2023/06/23 11:18:49;;;;;;;4.28;3.88;;;;;;;22.58;45.71;97211.75;4953927;29;20079;-77
2023/06/23 11:21:19;;;;;;;7.05;3.78;;;;;;;22.66;46.49;97218.50;4939113;29;20150;-78
2023/06/23 11:24:23;;;;;;;7.63;4.50;;;;;;;22.73;46.40;97202.38;4934826;29;20559;-77
2023/06/23 11:26:52;;;;;;;7.22;4.05;;;;;;;22.77;46.26;97203.50;4928096;29;20467;-77
2023/06/23 11:29:22;;;;;;;4.88;4.20;;;;;;;22.84;46.85;97212.91;4935047;29;20582;-77
2023/06/23 11:32:08;;;;;;;4.88;3.55;;;;;;;22.90;45.76;97213.00;4946824;29;20110;-77
2023/06/23 11:34:50;;;;;;;4.75;3.63;;;;;;;22.91;43.43;97234.00;4952371;29;20062;-77
2023/06/23 11:37:18;;;;;;;4.20;3.80;;;;;;;22.91;43.29;97214.59;4941785;29;20051;-77
2023/06/23 11:39:46;;;;;;;4.43;3.83;;;;;;;22.88;44.14;97215.91;4950570;29;20091;-77
2023/06/23 11:42:13;;;;;;;8.95;3.97;;;;;;;22.91;43.81;97223.38;4952355;29;20100;-77
2023/06/23 11:44:41;;;;;;;5.35;3.25;;;;;;;22.87;43.48;97219.63;4940220;29;20059;-77
2023/06/23 11:47:10;;;;;;;4.47;4.05;;;;;;;22.79;44.51;97233.34;4939518;29;20427;-77
2023/06/23 11:49:38;;;;;;;5.88;4.32;;;;;;;22.69;45.35;97233.19;4972255;29;20420;-77
2023/06/23 11:52:06;;;;;;;5.15;3.80;;;;;;;22.66;46.11;97239.00;4953297;29;20044;-79
2023/06/23 11:54:35;;;;;;;6.13;4.43;;;;;;;22.71;46.09;97233.75;4936186;29;20637;-77
2023/06/23 11:57:04;;;;;;;7.40;4.65;;;;;;;22.82;45.13;97232.81;4946485;29;20087;-78
2023/06/23 11:59:35;;;;;;;7.20;3.80;;;;;;;22.91;43.96;97235.88;4948162;29;20436;-78
2023/06/23 12:02:06;;;;;;;4.78;3.38;;;;;;;23.00;44.75;97232.59;4951765;29;20139;-78
2023/06/23 12:04:36;;;;;;;4.65;4.05;;;;;;;23.02;44.53;97238.47;4958170;29;20062;-77
2023/06/23 12:07:04;;;;;;;4.25;3.67;;;;;;;22.99;44.10;97238.91;4951788;29;20687;-77
2023/06/23 12:09:33;;;;;;;5.85;3.90;;;;;;;22.97;43.57;97233.03;4946342;29;20074;-78
2023/06/23 12:12:00;;;;;;;4.82;3.60;;;;;;;22.98;43.23;97245.31;4957228;29;20071;-78
2023/06/23 12:14:29;;;;;;;4.10;3.70;;;;;;;22.99;43.14;97249.56;4962395;29;20626;-77
2023/06/23 12:17:09;;;;;;;5.53;4.35;;;;;;;22.98;41.94;97245.31;4956386;29;20048;-77
2023/06/23 12:19:41;;;;;;;3.85;3.45;;;;;;;23.02;42.73;97243.81;4962539;29;20043;-78
2023/06/23 12:22:15;;;;;;;5.25;3.22;;;;;;;23.12;43.50;97252.97;4960275;29;20518;-77
2023/06/23 12:24:43;;;;;;;6.63;3.90;;;;;;;23.13;43.08;97263.34;4940095;29;20052;-78
2023/06/23 12:27:11;;;;;;;5.43;4.10;;;;;;;23.03;42.63;97264.03;4952975;29;20593;-77
2023/06/23 12:29:39;;;;;;;4.55;3.38;;;;;;;22.98;42.01;97276.41;4957389;29;20555;-77
2023/06/23 12:32:07;;;;;;;4.95;3.80;;;;;;;23.00;42.30;97277.00;4967544;29;20051;-77
2023/06/23 12:34:37;;;;;;;6.85;4.13;;;;;;;23.00;42.03;97272.50;4976499;29;20051;-77
2023/06/23 12:37:09;;;;;;;5.22;4.40;;;;;;;23.03;43.14;97269.34;4973501;29;20070;-78
2023/06/23 12:39:37;;;;;;;6.63;3.83;;;;;;;23.10;42.83;97271.81;4947337;29;20052;-77
2023/06/23 12:42:08;;;;;;;3.88;3.25;;;;;;;23.18;43.12;97273.28;4944136;29;20118;-76
2023/06/23 12:44:36;;;;;;;5.15;3.97;;;;;;;23.23;42.71;97276.78;4940981;29;20083;-78
2023/06/23 12:47:06;;;;;;;4.13;3.60;;;;;;;23.27;42.49;97277.13;4952714;29;20051;-78
2023/06/23 12:49:33;;;;;;;4.13;3.70;;;;;;;23.34;42.64;97272.41;4938912;29;20130;-77
2023/06/23 12:52:01;;;;;;;4.28;3.88;;;;;;;23.35;42.88;97274.03;4938356;29;20102;-77
2023/06/23 12:54:30;;;;;;;8.13;4.05;;;;;;;23.32;42.60;97269.19;4951309;29;20055;-76
2023/06/23 12:56:59;;;;;;;4.00;3.60;;;;;;;23.32;43.42;97276.38;4951297;29;20047;-77
2023/06/23 12:59:28;;;;;;;4.10;3.70;;;;;;;23.27;43.48;97284.31;4944927;29;20050;-77
2023/06/23 13:01:56;;;;;;;4.22;3.83;;;;;;;23.21;44.34;97294.06;4955818;29;20574;-77
2023/06/23 13:04:23;;;;;;;4.00;3.55;;;;;;;23.22;43.51;97300.97;4955388;29;20043;-77
2023/06/23 13:06:52;;;;;;;7.28;4.25;;;;;;;23.22;43.24;97277.84;4946016;29;20059;-78
2023/06/23 13:09:20;;;;;;;6.20;4.43;;;;;;;23.22;43.46;97287.69;4950804;29;20102;-77
2023/06/23 13:11:49;;;;;;;4.18;3.78;;;;;;;23.16;43.33;97286.03;4936857;29;20051;-78
2023/06/23 13:14:17;;;;;;;5.82;4.45;;;;;;;23.14;43.95;97288.13;4954638;29;20062;-77
2023/06/23 13:16:45;;;;;;;7.05;4.35;;;;;;;23.13;43.55;97289.94;4943621;29;20051;-77
2023/06/23 13:19:13;;;;;;;7.13;4.57;;;;;;;23.16;43.68;97281.50;4935942;29;20071;-78
2023/06/23 13:21:44;;;;;;;5.15;4.07;;;;;;;23.18;43.46;97286.59;4946483;29;20434;-78
2023/06/23 13:24:12;;;;;;;4.80;4.00;;;;;;;23.23;43.73;97289.31;4954387;29;20079;-77
2023/06/23 13:26:42;;;;;;;6.38;4.28;;;;;;;23.26;43.84;97288.78;4943525;29;20056;-78
2023/06/23 13:29:11;;;;;;;5.10;4.22;;;;;;;23.21;43.77;97288.75;4952553;29;20062;-77
2023/06/23 13:31:39;;;;;;;6.05;4.63;;;;;;;23.14;43.58;97296.09;4943166;29;20048;-77
2023/06/23 13:34:07;;;;;;;5.95;4.28;;;;;;;23.02;44.06;97289.03;4936648;29;20052;-78
2023/06/23 13:36:35;;;;;;;5.60;4.68;;;;;;;22.97;44.41;97296.09;4936857;29;20579;-77
2023/06/23 13:39:04;;;;;;;5.00;4.45;;;;;;;22.92;44.57;97302.16;4939436;29;20539;-77
2023/06/23 13:41:31;;;;;;;5.90;4.75;;;;;;;22.91;44.19;97292.53;4936383;29;20083;-76
2023/06/23 13:43:59;;;;;;;4.85;4.35;;;;;;;22.89;44.06;97302.63;4947004;29;20566;-78
2023/06/23 13:46:28;;;;;;;4.72;4.32;;;;;;;22.90;44.09;97301.59;4947230;29;20051;-77
2023/06/23 13:48:55;;;;;;;4.50;3.95;;;;;;;22.92;44.29;97286.19;4936208;29;20090;-82
2023/06/23 13:51:23;;;;;;;5.05;4.55;;;;;;;22.94;43.85;97300.06;4936078;29;20052;-77
2023/06/23 13:53:50;;;;;;;5.85;4.50;;;;;;;22.99;44.17;97302.78;4946414;29;20078;-77
2023/06/23 13:56:18;;;;;;;5.03;4.40;;;;;;;23.02;43.61;97307.66;4954771;29;20575;-77
2023/06/23 13:58:45;;;;;;;4.65;4.25;;;;;;;23.03;44.89;97322.56;4951734;29;20118;-76
2023/06/23 14:01:13;;;;;;;7.85;3.97;;;;;;;23.01;44.05;97310.56;4945479;29;20047;-77
2023/06/23 14:03:42;;;;;;;4.95;3.92;;;;;;;22.95;42.88;97312.28;4938737;29;20083;-77